Terminal Aerodrome Forecast
Issued by NWS

Home | Current Version | Previous Version | Text Only | Print | Product List | Glossary On
Versions: 1 2 3 4 5 6 7 8 9 10 11 12 13 14 15 16 17 18 19
000
FTUS44 KLZK 291743
TAFHOT
TAF
KHOT 291743Z 2918/3018 17010G20KT P6SM -SHRA BKN027 OVC035
     FM292000 16015G22KT P6SM VCSH SCT030 BKN040
      TEMPO 2922/2924 VRB20G30KT 3SM TSRA SCT020 BKN035CB
     FM300000 17015G23KT 4SM -TSRA SCT020 BKN030CB OVC040
     FM300400 18012G20KT P6SM VCSH SCT025 OVC035
     FM300900 19012KT 5SM -TSRA SCT025 OVC035CB=

USA.gov is the U.S. government's official web portal to all federal, state and local government web resources and services.